Delta Virtual Airport Information Service

Rio de Janeiro Galeao International Airport

ICAO: SBGL Country: Brazil
Latitude: -22.8089 Longitude: -43.2436
Latest Arrival : DAC6996 (FACT-SBGL) Latest Departure : DAC6996 (SBGL-MDPC)


WX CaptureLIVE
Data provided by noaa.gov | Fetched at 09:34:25

METAR : SBGL 281400Z 32007KT 280V340 9999 FEW025 BKN055 23/13 Q1021

TAF : SBGL 280900Z 2812/2918 25006KT 9999 FEW025 TX25/2816Z TN14/2904Z BECMG 2815/2817 18006KT CAVOK BECMG 2821/2823 28006KT 9999 SCT020 BECMG 2903/2905 CAVOK RMK PEG


Runway Data for SBGL
Data provided by openaviationdata.com

Runway ID Mag Var Hdg Length Elevation Surface ILS Freq ILS Id ILS Slope
10 -21 95° 13204 ft 28 ft Concrete 109.3 ITB 3
15 -21 146° 10380 ft 28 ft Asphalt 110.3 IGL 3
28 -21 275° 13204 ft 28 ft Concrete 111.5 ILM 2
33 -21 326° 10380 ft 28 ft Asphalt -- -- --

Rio de Janeiro Galeao International Airport, Brazil
Use only for reference purposes



Not for navigational purposes.